Time;durP1;ratioP1;P1;durP2;ratioP2;P2;SDS_P1;SDS_P2;PMS_P1;PMS_P2;Temp;Humidity;BMP_temperature;BMP_pressure;BME280_temperature;BME280_humidity;BME280_pressure;Samples;Min_cycle;Max_cycle;Signal;HPM_P1;HPM_P2
2022/08/30 00:01:25;;;;;;;;;;;20.80;57.10;;;;;;5164652;27;19942;-47
2022/08/30 00:03:51;;;;;;;;;;;20.50;54.80;;;;;;5146026;27;19923;-48
2022/08/30 00:06:17;;;;;;;;;;;20.30;53.90;;;;;;5170034;27;20338;-46
2022/08/30 00:08:43;;;;;;;;;;;19.80;53.60;;;;;;5162650;27;19923;-52
2022/08/30 00:11:09;;;;;;;;;;;20.10;56.30;;;;;;5160914;27;20298;-48
2022/08/30 00:13:36;;;;;;;;;;;20.80;60.50;;;;;;5150886;27;19936;-45
2022/08/30 00:16:02;;;;;;;;;;;21.50;59.90;;;;;;5164257;27;21438;-46
2022/08/30 00:18:28;;;;;;;;;;;21.20;57.80;;;;;;5169938;27;19927;-46
2022/08/30 00:20:54;;;;;;;;;;;20.50;56.40;;;;;;5141868;27;19923;-47
2022/08/30 00:23:20;;;;;;;;;;;20.40;54.30;;;;;;5164173;27;19930;-46
2022/08/30 00:25:46;;;;;;;;;;;20.00;53.90;;;;;;5169738;27;19984;-49
2022/08/30 00:28:12;;;;;;;;;;;19.80;53.00;;;;;;5160665;27;20007;-46
2022/08/30 00:30:38;;;;;;;;;;;19.80;52.30;;;;;;5162451;27;20160;-48
2022/08/30 00:33:04;;;;;;;;;;;20.20;58.70;;;;;;5169751;27;20294;-45
2022/08/30 00:35:29;;;;;;;;;;;20.90;60.70;;;;;;5164187;27;19969;-48
2022/08/30 00:37:55;;;;;;;;;;;21.70;59.60;;;;;;5169723;27;19927;-48
2022/08/30 00:40:21;;;;;;;;;;;20.90;57.10;;;;;;5164081;27;20324;-48
2022/08/30 00:42:47;;;;;;;;;;;20.40;55.40;;;;;;5164041;27;19935;-47
2022/08/30 00:45:36;;;;;;;;;;;20.20;54.30;;;;;;5168830;27;19926;-52
2022/08/30 00:48:02;;;;;;;;;;;19.90;53.40;;;;;;5147084;27;19990;-45
2022/08/30 00:50:28;;;;;;;;;;;19.90;53.70;;;;;;5163854;27;19974;-45
2022/08/30 00:52:55;;;;;;;;;;;20.50;59.80;;;;;;5150564;27;20023;-47
2022/08/30 00:55:21;;;;;;;;;;;21.20;60.40;;;;;;5163667;27;19938;-45
2022/08/30 00:57:47;;;;;;;;;;;21.60;58.10;;;;;;5163644;27;20445;-45
2022/08/30 01:00:13;;;;;;;;;;;20.50;56.80;;;;;;5169407;27;19930;-49
2022/08/30 01:02:39;;;;;;;;;;;20.30;55.10;;;;;;5163791;27;20309;-47
2022/08/30 01:05:07;;;;;;;;;;;20.00;53.80;;;;;;5165022;27;19974;-51
2022/08/30 01:07:33;;;;;;;;;;;20.00;52.90;;;;;;5163079;27;19923;-49
2022/08/30 01:09:59;;;;;;;;;;;19.90;52.70;;;;;;5163461;27;20017;-47
2022/08/30 01:12:26;;;;;;;;;;;20.30;59.40;;;;;;5169161;27;19939;-47
2022/08/30 01:14:51;;;;;;;;;;;21.00;60.70;;;;;;5163654;27;20402;-46
2022/08/30 01:17:17;;;;;;;;;;;21.60;58.60;;;;;;5144910;27;19923;-46
2022/08/30 01:19:46;;;;;;;;;;;20.80;56.90;;;;;;5150160;27;20429;-46
2022/08/30 01:22:35;;;;;;;;;;;20.30;55.10;;;;;;5161651;27;19922;-54
2022/08/30 01:25:00;;;;;;;;;;;20.30;53.90;;;;;;5147137;27;19926;-45
2022/08/30 01:27:27;;;;;;;;;;;20.00;52.80;;;;;;5150042;27;19952;-46
2022/08/30 01:29:53;;;;;;;;;;;19.80;52.70;;;;;;5163238;27;19927;-46
2022/08/30 01:32:20;;;;;;;;;;;20.10;57.90;;;;;;5165778;27;20002;-53
2022/08/30 01:34:49;;;;;;;;;;;20.80;60.70;;;;;;5167088;27;19934;-46
2022/08/30 01:37:19;;;;;;;;;;;21.60;59.70;;;;;;5163010;27;20009;-48
2022/08/30 01:39:45;;;;;;;;;;;21.00;57.20;;;;;;5150025;27;19923;-46
2022/08/30 01:42:11;;;;;;;;;;;20.60;55.10;;;;;;5158111;27;19930;-49
2022/08/30 01:44:37;;;;;;;;;;;20.20;54.20;;;;;;5162336;27;20025;-47
2022/08/30 01:47:03;;;;;;;;;;;19.80;53.80;;;;;;5168676;27;19922;-46
2022/08/30 01:49:29;;;;;;;;;;;19.80;54.60;;;;;;5163058;27;19924;-47
2022/08/30 01:51:55;;;;;;;;;;;20.50;59.70;;;;;;5162820;27;19922;-47
2022/08/30 01:54:20;;;;;;;;;;;21.20;60.50;;;;;;5168456;27;19975;-45
2022/08/30 01:56:46;;;;;;;;;;;21.60;58.20;;;;;;5162762;27;19927;-47
2022/08/30 01:59:12;;;;;;;;;;;20.80;56.00;;;;;;5165553;27;19930;-51
2022/08/30 02:01:38;;;;;;;;;;;20.30;54.90;;;;;;5160496;27;19947;-47
2022/08/30 02:04:04;;;;;;;;;;;20.10;53.40;;;;;;5158772;27;19950;-46
2022/08/30 02:06:30;;;;;;;;;;;20.00;52.80;;;;;;5167608;27;19930;-46
2022/08/30 02:08:56;;;;;;;;;;;19.80;52.70;;;;;;5162680;27;19952;-46
2022/08/30 02:11:22;;;;;;;;;;;20.20;58.40;;;;;;5144070;27;19923;-46
2022/08/30 02:13:48;;;;;;;;;;;20.80;60.70;;;;;;5167868;27;19923;-46
2022/08/30 02:16:14;;;;;;;;;;;21.60;59.40;;;;;;5162359;27;19927;-47
2022/08/30 02:18:40;;;;;;;;;;;21.00;56.90;;;;;;5162727;27;20301;-53
2022/08/30 02:21:06;;;;;;;;;;;20.50;55.20;;;;;;5162479;27;19930;-46
2022/08/30 02:23:32;;;;;;;;;;;20.10;54.20;;;;;;5162300;27;19932;-49
2022/08/30 02:25:58;;;;;;;;;;;20.00;52.90;;;;;;5167907;27;19934;-46
2022/08/30 02:28:24;;;;;;;;;;;19.80;53.90;;;;;;5162575;27;19979;-48
2022/08/30 02:30:50;;;;;;;;;;;20.40;59.80;;;;;;5162478;27;19929;-47
2022/08/30 02:33:16;;;;;;;;;;;21.10;60.40;;;;;;5167710;27;19930;-47
2022/08/30 02:35:42;;;;;;;;;;;21.60;58.30;;;;;;5160329;27;20042;-51
2022/08/30 02:38:08;;;;;;;;;;;20.80;56.40;;;;;;5142660;27;19926;-57
2022/08/30 02:40:33;;;;;;;;;;;20.20;55.10;;;;;;5165314;27;19962;-47
2022/08/30 02:42:59;;;;;;;;;;;20.00;53.80;;;;;;5162116;27;19948;-46
2022/08/30 02:45:25;;;;;;;;;;;19.80;53.10;;;;;;5167566;27;20298;-47
2022/08/30 02:47:51;;;;;;;;;;;19.80;55.50;;;;;;5162137;27;20015;-47
2022/08/30 02:50:17;;;;;;;;;;;20.40;60.70;;;;;;5162006;27;20365;-47
2022/08/30 02:52:42;;;;;;;;;;;21.30;60.30;;;;;;5167688;27;19922;-45
2022/08/30 02:55:08;;;;;;;;;;;21.40;58.00;;;;;;5154329;27;19927;-49
2022/08/30 02:57:34;;;;;;;;;;;20.70;56.00;;;;;;5141187;27;19923;-52
2022/08/30 03:00:00;;;;;;;;;;;20.30;54.50;;;;;;5167363;27;19926;-46
2022/08/30 03:02:26;;;;;;;;;;;20.00;53.70;;;;;;5162023;27;20290;-46
2022/08/30 03:04:52;;;;;;;;;;;19.60;53.40;;;;;;5167550;27;19930;-46
2022/08/30 03:07:18;;;;;;;;;;;20.30;59.80;;;;;;5161960;27;19927;-45
2022/08/30 03:09:44;;;;;;;;;;;21.10;60.50;;;;;;5161978;27;19923;-46
2022/08/30 03:12:10;;;;;;;;;;;21.50;58.40;;;;;;5166946;27;20014;-47
2022/08/30 03:14:36;;;;;;;;;;;20.80;56.30;;;;;;5157328;27;19931;-45
2022/08/30 03:17:03;;;;;;;;;;;20.20;55.10;;;;;;5161450;27;20013;-46
2022/08/30 03:19:29;;;;;;;;;;;20.00;53.70;;;;;;5170480;27;20415;-48
2022/08/30 03:21:55;;;;;;;;;;;19.80;53.10;;;;;;5165067;27;19926;-46
2022/08/30 03:24:20;;;;;;;;;;;20.00;56.00;;;;;;5170977;27;19927;-46
2022/08/30 03:26:46;;;;;;;;;;;20.70;60.40;;;;;;5145546;27;19955;-48
2022/08/30 03:29:12;;;;;;;;;;;21.40;60.10;;;;;;5165354;27;20441;-46
2022/08/30 03:31:38;;;;;;;;;;;21.30;57.70;;;;;;5167074;27;20290;-47
2022/08/30 03:34:04;;;;;;;;;;;20.60;56.00;;;;;;5163108;27;20018;-46
2022/08/30 03:36:30;;;;;;;;;;;20.30;54.30;;;;;;5144678;27;20223;-46
2022/08/30 03:38:56;;;;;;;;;;;20.10;53.50;;;;;;5170414;27;19945;-46
2022/08/30 03:41:23;;;;;;;;;;;19.90;52.60;;;;;;5164892;27;19927;-47
2022/08/30 03:43:48;;;;;;;;;;;19.80;52.20;;;;;;5170281;27;19927;-51
2022/08/30 03:46:14;;;;;;;;;;;20.30;58.90;;;;;;5165448;27;19929;-48
2022/08/30 03:48:40;;;;;;;;;;;20.90;60.70;;;;;;5165075;27;19927;-47
2022/08/30 03:51:06;;;;;;;;;;;21.60;59.00;;;;;;5165452;27;19923;-46
2022/08/30 03:53:32;;;;;;;;;;;20.80;57.00;;;;;;5164759;27;19927;-46
2022/08/30 03:55:57;;;;;;;;;;;20.20;55.20;;;;;;5164742;27;20204;-49
2022/08/30 03:58:23;;;;;;;;;;;20.10;53.50;;;;;;5170078;27;19926;-48
2022/08/30 04:00:49;;;;;;;;;;;19.90;52.80;;;;;;5164679;27;20283;-47
2022/08/30 04:03:17;;;;;;;;;;;19.90;55.30;;;;;;5168111;27;20026;-55
2022/08/30 04:05:42;;;;;;;;;;;20.40;60.70;;;;;;5167652;27;19926;-47
2022/08/30 04:08:08;;;;;;;;;;;21.20;60.20;;;;;;5161489;27;19991;-51
2022/08/30 04:10:34;;;;;;;;;;;21.30;57.70;;;;;;5167928;27;19934;-45
2022/08/30 04:13:00;;;;;;;;;;;20.70;55.90;;;;;;5164278;27;19923;-45
2022/08/30 04:15:26;;;;;;;;;;;20.30;54.40;;;;;;5164061;27;19991;-46
2022/08/30 04:17:53;;;;;;;;;;;20.10;53.10;;;;;;5169797;27;19922;-46
2022/08/30 04:20:19;;;;;;;;;;;19.80;53.00;;;;;;5144160;27;19962;-47
2022/08/30 04:22:45;;;;;;;;;;;19.90;58.40;;;;;;5164308;27;19923;-51
2022/08/30 04:25:11;;;;;;;;;;;20.80;60.50;;;;;;5169879;27;19927;-48
2022/08/30 04:27:37;;;;;;;;;;;21.50;59.80;;;;;;5159515;27;19945;-47
2022/08/30 04:30:03;;;;;;;;;;;21.30;57.20;;;;;;5168974;27;20009;-46
2022/08/30 04:32:29;;;;;;;;;;;20.60;55.90;;;;;;5164347;27;20013;-45
2022/08/30 04:34:55;;;;;;;;;;;20.10;54.60;;;;;;5164234;27;19922;-46
2022/08/30 04:37:21;;;;;;;;;;;20.00;53.60;;;;;;5169542;27;19983;-46
2022/08/30 04:39:47;;;;;;;;;;;19.90;52.70;;;;;;5163925;27;20392;-47
2022/08/30 04:42:14;;;;;;;;;;;19.90;55.90;;;;;;5163955;27;19945;-48
2022/08/30 04:44:40;;;;;;;;;;;20.60;60.40;;;;;;5166690;27;19926;-49
2022/08/30 04:47:08;;;;;;;;;;;21.30;60.00;;;;;;5161463;27;20297;-45
2022/08/30 04:49:34;;;;;;;;;;;21.30;57.70;;;;;;5150928;27;19926;-47
2022/08/30 04:52:00;;;;;;;;;;;20.40;56.20;;;;;;5163817;27;19930;-45
2022/08/30 04:54:26;;;;;;;;;;;20.10;54.30;;;;;;5163703;27;19975;-47
2022/08/30 04:56:51;;;;;;;;;;;19.90;53.70;;;;;;5169281;27;19934;-45
2022/08/30 04:59:17;;;;;;;;;;;19.80;52.70;;;;;;5163783;27;19922;-48
2022/08/30 05:01:43;;;;;;;;;;;20.10;57.70;;;;;;5163732;27;19953;-50
2022/08/30 05:04:09;;;;;;;;;;;20.80;60.70;;;;;;5164371;27;19943;-50
2022/08/30 05:06:35;;;;;;;;;;;21.60;59.80;;;;;;5162973;27;19927;-49
2022/08/30 05:09:00;;;;;;;;;;;21.10;57.50;;;;;;5168217;27;19922;-55
2022/08/30 05:11:26;;;;;;;;;;;20.50;55.90;;;;;;5164830;27;20377;-48
2022/08/30 05:13:52;;;;;;;;;;;20.20;54.40;;;;;;5163612;27;19971;-49
2022/08/30 05:16:18;;;;;;;;;;;19.90;53.30;;;;;;5168977;27;19927;-45
2022/08/30 05:18:44;;;;;;;;;;;19.80;52.90;;;;;;5163520;27;19922;-45
2022/08/30 05:21:11;;;;;;;;;;;19.70;54.30;;;;;;5161577;27;19922;-47
2022/08/30 05:23:37;;;;;;;;;;;20.30;59.60;;;;;;5165485;27;19971;-50
2022/08/30 05:26:04;;;;;;;;;;;21.10;60.40;;;;;;5144810;27;20017;-45
2022/08/30 05:28:29;;;;;;;;;;;21.70;58.40;;;;;;5164511;27;19923;-54
2022/08/30 05:30:55;;;;;;;;;;;20.80;56.40;;;;;;5167966;27;20297;-48
2022/08/30 05:33:21;;;;;;;;;;;20.30;55.10;;;;;;5162963;27;19978;-46
2022/08/30 05:35:47;;;;;;;;;;;20.00;54.00;;;;;;5168410;27;19927;-46
2022/08/30 05:38:12;;;;;;;;;;;19.80;53.10;;;;;;5163050;27;19929;-48
2022/08/30 05:40:39;;;;;;;;;;;20.00;55.90;;;;;;5158167;27;19923;-50
2022/08/30 05:43:05;;;;;;;;;;;20.50;60.80;;;;;;5167254;27;19930;-50
2022/08/30 05:45:30;;;;;;;;;;;21.30;59.90;;;;;;5163190;27;19980;-46
2022/08/30 05:47:56;;;;;;;;;;;21.40;57.20;;;;;;5163100;27;19931;-47
2022/08/30 05:50:23;;;;;;;;;;;20.60;55.70;;;;;;5168369;27;19933;-46
2022/08/30 05:52:48;;;;;;;;;;;20.20;54.40;;;;;;5162831;27;20346;-47
2022/08/30 05:55:14;;;;;;;;;;;19.80;54.00;;;;;;5168188;27;19927;-45
2022/08/30 05:57:40;;;;;;;;;;;19.80;52.80;;;;;;5161698;27;19927;-50
2022/08/30 06:00:09;;;;;;;;;;;20.00;57.90;;;;;;5158702;27;20028;-48
2022/08/30 06:02:35;;;;;;;;;;;20.70;60.60;;;;;;5168104;27;20326;-48
2022/08/30 06:05:01;;;;;;;;;;;21.50;59.50;;;;;;5162791;27;19929;-48
2022/08/30 06:07:27;;;;;;;;;;;21.10;57.40;;;;;;5143899;27;20270;-47
2022/08/30 06:09:53;;;;;;;;;;;20.50;55.60;;;;;;5168063;27;19922;-47
2022/08/30 06:12:19;;;;;;;;;;;20.20;54.40;;;;;;5162641;27;20419;-48
2022/08/30 06:14:44;;;;;;;;;;;20.00;53.50;;;;;;5168135;27;19923;-46
2022/08/30 06:17:10;;;;;;;;;;;19.70;52.90;;;;;;5158710;27;20294;-49
2022/08/30 06:19:36;;;;;;;;;;;20.30;58.80;;;;;;5160656;27;19930;-49
2022/08/30 06:22:02;;;;;;;;;;;21.00;60.50;;;;;;5167981;27;20339;-47
2022/08/30 06:24:27;;;;;;;;;;;21.80;59.20;;;;;;5162362;27;19926;-47
2022/08/30 06:26:53;;;;;;;;;;;20.90;57.10;;;;;;5162240;27;20712;-52
2022/08/30 06:29:19;;;;;;;;;;;20.30;55.20;;;;;;5167948;27;20378;-46
2022/08/30 06:31:45;;;;;;;;;;;20.10;54.10;;;;;;5162422;27;19930;-47
2022/08/30 06:34:11;;;;;;;;;;;19.90;53.40;;;;;;5165930;27;19970;-54
2022/08/30 06:36:37;;;;;;;;;;;19.90;52.40;;;;;;5159022;27;19927;-47
2022/08/30 06:39:03;;;;;;;;;;;20.20;59.70;;;;;;5162049;27;19929;-47
2022/08/30 06:41:29;;;;;;;;;;;21.00;60.80;;;;;;5167636;27;20378;-44
2022/08/30 06:43:55;;;;;;;;;;;21.70;59.40;;;;;;5162099;27;19937;-48
2022/08/30 06:46:25;;;;;;;;;;;20.90;56.60;;;;;;5162040;27;19923;-45
2022/08/30 06:48:51;;;;;;;;;;;20.40;55.30;;;;;;5167447;27;19922;-46
2022/08/30 06:51:20;;;;;;;;;;;20.00;54.50;;;;;;5161981;27;19926;-48
2022/08/30 06:53:47;;;;;;;;;;;20.00;53.30;;;;;;5162324;27;19922;-49
2022/08/30 06:56:13;;;;;;;;;;;19.80;52.80;;;;;;5169092;27;19929;-47
2022/08/30 06:58:40;;;;;;;;;;;20.00;57.70;;;;;;5165816;27;20346;-49
2022/08/30 07:01:06;;;;;;;;;;;20.80;60.70;;;;;;5171168;27;20437;-46
2022/08/30 07:03:32;;;;;;;;;;;21.60;59.60;;;;;;5165548;27;19923;-46
2022/08/30 07:05:58;;;;;;;;;;;21.20;57.10;;;;;;5165578;27;19922;-45
2022/08/30 07:08:24;;;;;;;;;;;20.60;56.10;;;;;;5152690;27;19923;-45
2022/08/30 07:10:50;;;;;;;;;;;20.60;54.00;;;;;;5165299;27;20368;-45
2022/08/30 07:13:16;;;;;;;;;;;20.20;53.50;;;;;;5160400;27;20341;-49
2022/08/30 07:15:42;;;;;;;;;;;20.00;52.80;;;;;;5151885;27;19942;-47
2022/08/30 07:20:53;;;;;;;;;;;20.20;58.10;;;;;;5165433;27;19965;-47
2022/08/30 07:23:19;;;;;;;;;;;20.90;60.60;;;;;;5170861;27;19923;-47
2022/08/30 07:25:45;;;;;;;;;;;21.70;59.30;;;;;;5165372;27;19971;-45
2022/08/30 07:28:11;;;;;;;;;;;20.80;57.10;;;;;;5170912;27;19933;-44
2022/08/30 07:30:37;;;;;;;;;;;20.50;55.90;;;;;;5161468;27;19923;-47
2022/08/30 07:33:02;;;;;;;;;;;20.30;54.40;;;;;;5163260;27;19929;-47
2022/08/30 07:35:28;;;;;;;;;;;20.20;53.30;;;;;;5170611;27;19927;-49
2022/08/30 07:37:54;;;;;;;;;;;19.90;53.00;;;;;;5164942;27;19987;-48
2022/08/30 07:40:20;;;;;;;;;;;19.90;52.50;;;;;;5164866;27;20169;-47
2022/08/30 07:42:46;;;;;;;;;;;20.30;58.90;;;;;;5170331;27;19937;-47
2022/08/30 07:45:11;;;;;;;;;;;21.00;60.80;;;;;;5146281;27;19922;-46
2022/08/30 07:47:37;;;;;;;;;;;21.80;59.40;;;;;;5170282;27;19923;-45
2022/08/30 07:50:03;;;;;;;;;;;20.90;57.20;;;;;;5159808;27;19971;-45
2022/08/30 07:52:29;;;;;;;;;;;20.50;55.50;;;;;;5164590;27;19933;-46
2022/08/30 07:54:55;;;;;;;;;;;20.20;54.50;;;;;;5170358;27;19926;-44
2022/08/30 07:57:21;;;;;;;;;;;20.00;53.80;;;;;;5164685;27;20026;-48
2022/08/30 07:59:47;;;;;;;;;;;19.90;53.10;;;;;;5164692;27;20392;-50
2022/08/30 08:02:13;;;;;;;;;;;19.80;54.00;;;;;;5170306;27;20342;-46
2022/08/30 08:04:39;;;;;;;;;;;20.50;59.50;;;;;;5164060;27;19948;-47
2022/08/30 08:07:05;;;;;;;;;;;21.10;60.90;;;;;;5165180;27;19923;-54
2022/08/30 08:09:32;;;;;;;;;;;21.70;58.60;;;;;;5164111;27;19934;-45
2022/08/30 08:11:58;;;;;;;;;;;20.80;57.10;;;;;;5164439;27;20017;-47
2022/08/30 08:14:24;;;;;;;;;;;20.50;55.00;;;;;;5169936;27;19969;-46
2022/08/30 08:16:50;;;;;;;;;;;20.30;54.30;;;;;;5164435;27;19934;-45
2022/08/30 08:19:16;;;;;;;;;;;19.90;53.80;;;;;;5164558;27;19922;-45
2022/08/30 08:21:42;;;;;;;;;;;20.00;53.20;;;;;;5170120;27;20304;-48
2022/08/30 08:24:08;;;;;;;;;;;19.80;52.80;;;;;;5164334;27;20018;-46
2022/08/30 08:26:35;;;;;;;;;;;20.30;59.20;;;;;;5160041;27;19929;-50
2022/08/30 08:29:01;;;;;;;;;;;21.10;60.70;;;;;;5150661;27;19938;-45
2022/08/30 08:31:27;;;;;;;;;;;21.80;59.20;;;;;;5164511;27;20378;-45
2022/08/30 08:33:54;;;;;;;;;;;20.90;57.30;;;;;;5169446;27;19978;-49
2022/08/30 08:36:19;;;;;;;;;;;20.50;56.00;;;;;;5164078;27;20010;-48
2022/08/30 08:38:45;;;;;;;;;;;20.30;54.30;;;;;;5163953;27;19926;-45
2022/08/30 08:41:14;;;;;;;;;;;20.10;53.90;;;;;;5151062;27;19923;-45
2022/08/30 08:43:40;;;;;;;;;;;20.10;53.10;;;;;;5160850;27;20394;-49
2022/08/30 08:46:05;;;;;;;;;;;19.80;52.60;;;;;;5161670;27;19966;-46
2022/08/30 08:48:32;;;;;;;;;;;20.40;59.30;;;;;;5169259;27;19923;-47
2022/08/30 08:53:44;;;;;;;;;;;21.80;59.20;;;;;;5148215;27;19979;-50
2022/08/30 08:56:14;;;;;;;;;;;20.80;57.20;;;;;;5169280;27;20413;-45
2022/08/30 08:58:53;;;;;;;;;;;20.50;55.60;;;;;;5145497;27;19931;-50
2022/08/30 09:01:20;;;;;;;;;;;20.20;54.40;;;;;;5146330;27;19923;-53
2022/08/30 09:03:46;;;;;;;;;;;20.30;53.60;;;;;;5162397;27;20370;-45
2022/08/30 09:06:32;;;;;;;;;;;19.90;53.10;;;;;;5163463;27;19923;-45
2022/08/30 09:08:58;;;;;;;;;;;20.00;53.60;;;;;;5133014;27;20555;-54
2022/08/30 09:11:25;;;;;;;;;;;20.60;60.20;;;;;;5164221;27;19931;-46
2022/08/30 09:13:51;;;;;;;;;;;21.30;61.00;;;;;;5145091;27;19923;-46
2022/08/30 09:16:36;;;;;;;;;;;21.60;58.90;;;;;;5167577;27;19923;-46
2022/08/30 09:19:01;;;;;;;;;;;20.80;57.10;;;;;;5163657;27;19929;-46
2022/08/30 09:21:27;;;;;;;;;;;20.60;54.80;;;;;;5158417;27;20005;-49
2022/08/30 09:23:58;;;;;;;;;;;20.30;54.50;;;;;;5168098;27;19923;-46
2022/08/30 09:26:34;;;;;;;;;;;20.20;54.00;;;;;;5163417;27;19929;-48
2022/08/30 09:28:59;;;;;;;;;;;20.10;53.00;;;;;;5163572;27;19922;-49
2022/08/30 09:31:25;;;;;;;;;;;19.90;52.80;;;;;;5168529;27;19990;-47
2022/08/30 09:34:02;;;;;;;;;;;20.30;58.50;;;;;;5163031;27;19923;-46
2022/08/30 09:36:31;;;;;;;;;;;21.10;61.10;;;;;;5144285;27;19923;-47
2022/08/30 09:39:01;;;;;;;;;;;21.80;60.30;;;;;;5146568;27;20378;-48
2022/08/30 09:41:26;;;;;;;;;;;21.10;57.50;;;;;;5160909;27;20017;-45
2022/08/30 09:44:03;;;;;;;;;;;20.70;55.70;;;;;;5166577;27;19945;-53
2022/08/30 09:46:29;;;;;;;;;;;20.40;54.70;;;;;;5168417;27;20017;-46
2022/08/30 09:48:54;;;;;;;;;;;20.20;53.90;;;;;;5163039;27;19949;-46
2022/08/30 09:51:40;;;;;;;;;;;20.20;53.20;;;;;;5168394;27;19929;-48
2022/08/30 09:54:06;;;;;;;;;;;20.10;53.10;;;;;;5166403;27;21013;-47
2022/08/30 09:56:35;;;;;;;;;;;20.00;52.90;;;;;;5161562;27;19927;-49
2022/08/30 09:59:19;;;;;;;;;;;20.00;56.50;;;;;;5164095;27;19923;-46
2022/08/30 10:01:46;;;;;;;;;;;20.80;60.90;;;;;;5164085;27;20013;-45
2022/08/30 10:04:21;;;;;;;;;;;21.60;61.00;;;;;;5162628;27;19933;-45
2022/08/30 10:06:54;;;;;;;;;;;21.30;58.60;;;;;;5168079;27;20307;-44
2022/08/30 10:09:22;;;;;;;;;;;20.80;56.90;;;;;;5142034;27;20293;-46
2022/08/30 10:11:52;;;;;;;;;;;20.30;55.40;;;;;;5144183;27;20384;-48
2022/08/30 10:14:37;;;;;;;;;;;20.10;54.50;;;;;;5132278;27;19922;-45
2022/08/30 10:17:06;;;;;;;;;;;20.10;53.90;;;;;;5157271;27;19929;-48
2022/08/30 10:19:47;;;;;;;;;;;19.90;53.50;;;;;;5162077;27;19923;-45
2022/08/30 10:22:14;;;;;;;;;;;20.10;52.80;;;;;;5167869;27;19933;-45
2022/08/30 10:24:43;;;;;;;;;;;20.00;53.20;;;;;;5162274;27;19926;-45
2022/08/30 10:27:17;;;;;;;;;;;20.40;59.90;;;;;;5162134;27;20305;-48
2022/08/30 10:29:46;;;;;;;;;;;21.10;61.70;;;;;;5167989;27;19923;-47
2022/08/30 10:32:18;;;;;;;;;;;21.80;60.50;;;;;;5162425;27;19948;-47
2022/08/30 10:34:45;;;;;;;;;;;21.10;58.00;;;;;;5157793;27;19923;-49
2022/08/30 10:37:13;;;;;;;;;;;20.80;55.80;;;;;;5125140;27;21299;-48
2022/08/30 10:39:40;;;;;;;;;;;20.60;54.50;;;;;;5121313;27;19943;-45
2022/08/30 10:42:16;;;;;;;;;;;20.30;54.20;;;;;;5122961;27;19923;-48
2022/08/30 10:44:43;;;;;;;;;;;20.10;53.50;;;;;;5128538;27;20451;-45
2022/08/30 10:47:30;;;;;;;;;;;19.90;53.60;;;;;;5141489;27;20301;-46
2022/08/30 10:50:00;;;;;;;;;;;20.00;52.90;;;;;;5141371;27;20299;-46
2022/08/30 10:52:26;;;;;;;;;;;19.90;52.50;;;;;;5143421;27;20115;-47
2022/08/30 10:54:53;;;;;;;;;;;20.40;59.10;;;;;;5138839;27;20293;-47
2022/08/30 10:57:19;;;;;;;;;;;21.10;61.10;;;;;;5128100;27;19931;-48
2022/08/30 10:59:51;;;;;;;;;;;21.70;59.50;;;;;;5141031;27;20110;-46
2022/08/30 11:02:29;;;;;;;;;;;21.10;57.30;;;;;;5121534;27;20294;-45
2022/08/30 11:05:02;;;;;;;;;;;20.70;55.70;;;;;;5146523;27;19923;-47
2022/08/30 11:07:47;;;;;;;;;;;20.40;54.80;;;;;;5122730;27;19931;-44
2022/08/30 11:10:31;;;;;;;;;;;20.20;54.00;;;;;;5139079;27;19942;-51
2022/08/30 11:13:01;;;;;;;;;;;20.00;53.30;;;;;;5140494;27;19927;-54
2022/08/30 11:15:29;;;;;;;;;;;20.00;52.60;;;;;;5146179;27;19933;-44
2022/08/30 11:17:57;;;;;;;;;;;19.80;52.70;;;;;;5140814;27;19923;-49
2022/08/30 11:20:38;;;;;;;;;;;20.50;58.70;;;;;;5127615;27;19976;-46
2022/08/30 11:23:24;;;;;;;;;;;21.20;60.20;;;;;;5143120;27;20362;-46
2022/08/30 11:25:53;;;;;;;;;;;21.90;58.70;;;;;;5140179;27;19927;-47
2022/08/30 11:28:34;;;;;;;;;;;21.00;56.80;;;;;;5145242;27;19949;-54
2022/08/30 11:31:07;;;;;;;;;;;20.80;55.00;;;;;;5142440;27;19956;-45
2022/08/30 11:33:46;;;;;;;;;;;20.50;54.00;;;;;;5140584;27;19923;-44
2022/08/30 11:36:34;;;;;;;;;;;20.30;53.70;;;;;;5142429;27;19970;-55
2022/08/30 11:39:02;;;;;;;;;;;20.20;52.90;;;;;;5147015;27;19939;-47
2022/08/30 11:41:35;;;;;;;;;;;20.10;52.50;;;;;;5139997;27;20313;-45
2022/08/30 11:44:10;;;;;;;;;;;19.80;53.10;;;;;;5144301;27;19934;-50
2022/08/30 11:46:37;;;;;;;;;;;19.80;54.30;;;;;;5149179;27;20400;-48
2022/08/30 11:49:23;;;;;;;;;;;20.60;59.30;;;;;;5138940;27;20339;-46
2022/08/30 11:52:00;;;;;;;;;;;21.40;59.90;;;;;;5143303;27;20009;-49
2022/08/30 11:54:35;;;;;;;;;;;21.80;57.90;;;;;;5149627;27;19923;-48
2022/08/30 11:57:01;;;;;;;;;;;20.90;55.80;;;;;;5125688;27;19927;-46
2022/08/30 11:59:33;;;;;;;;;;;20.70;54.50;;;;;;5145501;27;19987;-55
2022/08/30 12:02:00;;;;;;;;;;;20.40;54.00;;;;;;5131052;27;20278;-46
2022/08/30 12:04:28;;;;;;;;;;;20.30;53.30;;;;;;5143687;27;20077;-47
2022/08/30 12:06:55;;;;;;;;;;;20.10;52.90;;;;;;5143771;27;19975;-49
2022/08/30 12:09:24;;;;;;;;;;;20.20;52.20;;;;;;5143000;27;20294;-51
2022/08/30 12:12:01;;;;;;;;;;;19.90;53.10;;;;;;5143879;27;19927;-48
2022/08/30 12:14:43;;;;;;;;;;;20.50;58.90;;;;;;5149272;27;19937;-48
2022/08/30 12:19:56;;;;;;;;;;;21.60;57.30;;;;;;5128084;27;20057;-49
2022/08/30 12:22:21;;;;;;;;;;;20.90;55.70;;;;;;5149172;27;19927;-48
2022/08/30 12:24:48;;;;;;;;;;;20.50;54.90;;;;;;5139680;27;19923;-47
2022/08/30 12:27:25;;;;;;;;;;;20.40;53.60;;;;;;5123323;27;19931;-48
2022/08/30 12:29:55;;;;;;;;;;;20.30;53.10;;;;;;5148858;27;19928;-45
2022/08/30 12:32:21;;;;;;;;;;;20.10;53.00;;;;;;5143610;27;19923;-46
2022/08/30 12:34:53;;;;;;;;;;;20.00;53.10;;;;;;5124730;27;19937;-50
2022/08/30 12:37:22;;;;;;;;;;;20.00;52.30;;;;;;5148928;27;19930;-47
2022/08/30 12:39:49;;;;;;;;;;;20.30;56.30;;;;;;5143382;27;20293;-47
2022/08/30 12:42:19;;;;;;;;;;;21.00;59.50;;;;;;5141013;27;20398;-49
2022/08/30 12:44:46;;;;;;;;;;;21.70;59.20;;;;;;5145847;27;20327;-50
2022/08/30 12:47:12;;;;;;;;;;;21.40;56.70;;;;;;5142871;27;19950;-45
2022/08/30 12:49:38;;;;;;;;;;;20.80;55.60;;;;;;5129017;27;19923;-55
2022/08/30 12:52:23;;;;;;;;;;;20.40;54.40;;;;;;5126061;27;19927;-45
2022/08/30 12:54:49;;;;;;;;;;;20.50;53.70;;;;;;5143257;27;19926;-45
2022/08/30 12:57:33;;;;;;;;;;;20.40;53.00;;;;;;5148388;27;19927;-45
2022/08/30 12:59:59;;;;;;;;;;;20.30;52.60;;;;;;5148046;27;19923;-52
2022/08/30 13:02:40;;;;;;;;;;;20.00;52.90;;;;;;5137822;27;19983;-46
2022/08/30 13:05:25;;;;;;;;;;;20.00;52.40;;;;;;5147533;27;19927;-52
2022/08/30 13:07:51;;;;;;;;;;;20.00;52.10;;;;;;5148364;27;19923;-46
2022/08/30 13:10:19;;;;;;;;;;;20.30;57.00;;;;;;5142836;27;20275;-46
2022/08/30 13:12:58;;;;;;;;;;;21.00;59.80;;;;;;5148319;27;19923;-46
2022/08/30 13:15:28;;;;;;;;;;;21.80;58.90;;;;;;5147132;27;20045;-48
2022/08/30 13:18:12;;;;;;;;;;;21.30;56.80;;;;;;5142694;27;19949;-47
2022/08/30 13:20:38;;;;;;;;;;;20.90;54.90;;;;;;5141089;27;20279;-56
2022/08/30 13:23:07;;;;;;;;;;;20.60;54.30;;;;;;5144129;27;19935;-46
2022/08/30 13:25:33;;;;;;;;;;;20.30;53.70;;;;;;5124215;27;19982;-45
2022/08/30 13:27:59;;;;;;;;;;;20.30;52.60;;;;;;5148015;27;19995;-48
2022/08/30 13:30:25;;;;;;;;;;;20.30;52.60;;;;;;5142671;27;19945;-44
2022/08/30 13:32:51;;;;;;;;;;;20.00;52.80;;;;;;5123643;27;20018;-47
2022/08/30 13:35:17;;;;;;;;;;;20.10;52.30;;;;;;5147758;27;19930;-46
2022/08/30 13:37:43;;;;;;;;;;;20.10;55.50;;;;;;5138902;27;19930;-48
2022/08/30 13:40:12;;;;;;;;;;;20.80;59.30;;;;;;5139848;27;20126;-50
2022/08/30 13:42:40;;;;;;;;;;;21.60;59.30;;;;;;5129460;27;19923;-46
2022/08/30 13:45:06;;;;;;;;;;;21.70;57.40;;;;;;5142371;27;20370;-50
2022/08/30 13:47:32;;;;;;;;;;;20.80;56.00;;;;;;5147601;27;19986;-47
2022/08/30 13:49:58;;;;;;;;;;;20.70;54.60;;;;;;5142261;27;20025;-49
2022/08/30 13:52:24;;;;;;;;;;;20.50;53.90;;;;;;5142130;27;19930;-45
2022/08/30 13:54:51;;;;;;;;;;;20.30;53.50;;;;;;5128474;27;20291;-45
2022/08/30 13:57:17;;;;;;;;;;;20.30;52.80;;;;;;5137103;27;19923;-45
2022/08/30 13:59:42;;;;;;;;;;;20.10;52.60;;;;;;5141532;27;20217;-48
2022/08/30 14:02:08;;;;;;;;;;;20.20;52.30;;;;;;5146609;27;19927;-46
2022/08/30 14:04:34;;;;;;;;;;;20.00;52.40;;;;;;5142045;27;19927;-46
2022/08/30 14:07:00;;;;;;;;;;;20.30;56.30;;;;;;5147435;27;19923;-49
2022/08/30 14:09:25;;;;;;;;;;;21.00;59.20;;;;;;5142223;27;20386;-47
2022/08/30 14:11:51;;;;;;;;;;;21.80;58.70;;;;;;5141964;27;20008;-44
2022/08/30 14:14:17;;;;;;;;;;;21.30;56.60;;;;;;5144375;27;19939;-47
2022/08/30 14:16:43;;;;;;;;;;;21.00;54.90;;;;;;5139062;27;20393;-46
2022/08/30 14:19:09;;;;;;;;;;;20.60;54.10;;;;;;5141451;27;20005;-46
2022/08/30 14:21:34;;;;;;;;;;;20.50;53.30;;;;;;5147188;27;20062;-45
2022/08/30 14:24:01;;;;;;;;;;;20.40;52.60;;;;;;5141645;27;19975;-48
2022/08/30 14:26:30;;;;;;;;;;;20.30;52.60;;;;;;5145074;27;20335;-55
2022/08/30 14:28:56;;;;;;;;;;;20.20;52.10;;;;;;5145670;27;20343;-48